Back to Top

Language: 

My Weather Underground Personal Weather Station Historical Data with Graphs...

Delerius Weather Station Historical Data
Daily Summary for April 19, 2017 Units:  English    Metric   Both
« Previous Day
Next Day »
Daily Weekly Monthly Yearly Custom
  High: Low: Average:
Temperature: 55.2 °F 39.9 °F 48.2 °F
Dew Point: 41.5 °F 35.8 °F 38.1 °F
Humidity: 88 % 49 % 69 %
Wind Speed: 8.0 mph 0.0 mph 2.9 mph
Wind Gust: 14.0 mph - -
Wind:- - SW
Pressure: 30.63 in 30.55 in -
Precipitation: 0.00 in    
Historical Graphs
 
 
Tabular Data for April 19, 2017
Time Temperature Dew Point Pressure Wind Wind Speed Wind Gust Humidity Rainfall Rate (Hourly) solar Conditions
00:04 43.3 °F 37.6 °F 30.60 in SE 2.0 mph 5.0 mph 80 % 0.00 in 0 W/m2
00:09 43.3 °F 37.6 °F 30.60 in SE 1.0 mph 5.0 mph 80 % 0.00 in 0 W/m2
00:14 43.3 °F 37.6 °F 30.60 in SE 1.0 mph 3.0 mph 80 % 0.00 in 0 W/m2
00:19 43.3 °F 37.6 °F 30.60 in SE 1.0 mph 3.0 mph 80 % 0.00 in 0 W/m2
00:24 43.3 °F 37.9 °F 30.60 in Calm   3.0 mph 81 % 0.00 in 0 W/m2
00:29 43.3 °F 37.9 °F 30.60 in Calm   1.0 mph 81 % 0.00 in 0 W/m2
00:35 43.3 °F 37.9 °F 30.61 in Calm   2.0 mph 81 % 0.00 in 0 W/m2
00:40 43.3 °F 37.9 °F 30.61 in Calm   2.0 mph 81 % 0.00 in 0 W/m2
00:45 43.3 °F 37.9 °F 30.61 in Calm   1.0 mph 81 % 0.00 in 0 W/m2
00:50 43.2 °F 37.7 °F 30.61 in Calm   2.0 mph 81 % 0.00 in 0 W/m2
00:55 43.0 °F 37.5 °F 30.61 in Calm   2.0 mph 81 % 0.00 in 0 W/m2
01:00 43.0 °F 37.9 °F 30.61 in SE 1.0 mph 5.0 mph 82 % 0.00 in 0 W/m2
01:05 43.0 °F 37.9 °F 30.61 in Calm   5.0 mph 82 % 0.00 in 0 W/m2
01:10 43.0 °F 37.9 °F 30.61 in Calm   3.0 mph 82 % 0.00 in 0 W/m2
01:15 42.8 °F 37.7 °F 30.61 in SE 1.0 mph 4.0 mph 82 % 0.00 in 0 W/m2
01:20 42.8 °F 37.7 °F 30.61 in SE 1.0 mph 4.0 mph 82 % 0.00 in 0 W/m2
01:25 42.8 °F 37.7 °F 30.61 in SE 1.0 mph 4.0 mph 82 % 0.00 in 0 W/m2
01:30 42.8 °F 37.7 °F 30.61 in SE 1.0 mph 4.0 mph 82 % 0.00 in 0 W/m2
01:35 42.8 °F 37.7 °F 30.61 in Calm   2.0 mph 82 % 0.00 in 0 W/m2
01:40 42.8 °F 37.7 °F 30.61 in Calm     82 % 0.00 in 0 W/m2
01:45 42.8 °F 38.0 °F 30.61 in Calm     83 % 0.00 in 0 W/m2
01:50 42.8 °F 37.7 °F 30.61 in Calm   2.0 mph 82 % 0.00 in 0 W/m2
01:55 42.6 °F 37.5 °F 30.61 in Calm   3.0 mph 82 % 0.00 in 0 W/m2
02:00 42.6 °F 37.8 °F 30.60 in SE 1.0 mph 5.0 mph 83 % 0.00 in 0 W/m2
02:05 42.6 °F 37.8 °F 30.60 in SE 1.0 mph 5.0 mph 83 % 0.00 in 0 W/m2
02:10 42.4 °F 37.6 °F 30.60 in SE 1.0 mph 4.0 mph 83 % 0.00 in 0 W/m2
02:15 42.4 °F 37.6 °F 30.60 in SE 1.0 mph 4.0 mph 83 % 0.00 in 0 W/m2
02:20 42.3 °F 37.5 °F 30.60 in SE 1.0 mph 4.0 mph 83 % 0.00 in 0 W/m2
02:25 42.3 °F 37.5 °F 30.60 in SE 1.0 mph 5.0 mph 83 % 0.00 in 0 W/m2
02:30 42.1 °F 37.3 °F 30.60 in SSE 1.0 mph 5.0 mph 83 % 0.00 in 0 W/m2
02:35 41.9 °F 37.1 °F 30.60 in SSE 1.0 mph 2.0 mph 83 % 0.00 in 0 W/m2
02:40 41.7 °F 36.9 °F 30.60 in SSE 1.0 mph 2.0 mph 83 % 0.00 in 0 W/m2
02:45 41.4 °F 36.6 °F 30.60 in Calm   2.0 mph 83 % 0.00 in 0 W/m2
02:50 41.0 °F 36.2 °F 30.60 in Calm   1.0 mph 83 % 0.00 in 0 W/m2
02:55 40.6 °F 36.2 °F 30.60 in Calm     84 % 0.00 in 0 W/m2
02:58 40.6 °F 36.2 °F 30.60 in Calm     84 % 0.00 in 0 W/m2
03:03 40.3 °F 35.8 °F 30.60 in Calm     84 % 0.00 in 0 W/m2
03:08 40.1 °F 36.0 °F 30.60 in Calm     85 % 0.00 in 0 W/m2
03:13 39.9 °F 35.8 °F 30.59 in Calm     85 % 0.00 in 0 W/m2
03:18 39.9 °F 36.1 °F 30.59 in Calm     86 % 0.00 in 0 W/m2
03:23 39.9 °F 36.4 °F 30.59 in Calm   2.0 mph 87 % 0.00 in 0 W/m2
03:28 39.9 °F 36.4 °F 30.59 in Calm   2.0 mph 87 % 0.00 in 0 W/m2
03:33 39.9 °F 36.4 °F 30.59 in Calm     87 % 0.00 in 0 W/m2
03:38 39.9 °F 36.4 °F 30.59 in Calm     87 % 0.00 in 0 W/m2
03:43 39.9 °F 36.7 °F 30.59 in Calm     88 % 0.00 in 0 W/m2
03:48 40.1 °F 36.8 °F 30.59 in Calm   4.0 mph 88 % 0.00 in 0 W/m2
03:53 40.3 °F 37.0 °F 30.59 in Calm   4.0 mph 88 % 0.00 in 0 W/m2
03:58 40.3 °F 37.0 °F 30.59 in Calm   1.0 mph 88 % 0.00 in 0 W/m2
04:03 40.3 °F 36.7 °F 30.59 in Calm     87 % 0.00 in 0 W/m2
04:08 40.3 °F 37.0 °F 30.59 in Calm   1.0 mph 88 % 0.00 in 0 W/m2
04:13 40.5 °F 37.2 °F 30.60 in Calm   1.0 mph 88 % 0.00 in 0 W/m2
04:18 40.5 °F 36.9 °F 30.60 in Calm     87 % 0.00 in 0 W/m2
04:23 40.5 °F 36.9 °F 30.60 in Calm     87 % 0.00 in 0 W/m2
04:24 40.5 °F 36.9 °F 30.60 in Calm     87 % 0.00 in 0 W/m2
04:29 40.5 °F 36.9 °F 30.60 in Calm   1.0 mph 87 % 0.00 in 0 W/m2
04:34 40.5 °F 36.9 °F 30.60 in Calm   1.0 mph 87 % 0.00 in 0 W/m2
04:39 40.5 °F 37.2 °F 30.60 in Calm   2.0 mph 88 % 0.00 in 0 W/m2
04:44 40.5 °F 37.2 °F 30.60 in Calm   4.0 mph 88 % 0.00 in 0 W/m2
04:49 40.6 °F 37.4 °F 30.60 in SSE 1.0 mph 4.0 mph 88 % 0.00 in 0 W/m2
04:54 40.6 °F 37.4 °F 30.60 in SSE 1.0 mph 4.0 mph 88 % 0.00 in 0 W/m2
04:59 40.8 °F 37.3 °F 30.60 in Calm   4.0 mph 87 % 0.00 in 0 W/m2
05:04 40.8 °F 37.3 °F 30.60 in Calm   3.0 mph 87 % 0.00 in 0 W/m2
05:09 40.8 °F 37.3 °F 30.60 in Calm   3.0 mph 87 % 0.00 in 0 W/m2
05:14 40.8 °F 37.3 °F 30.60 in Calm   1.0 mph 87 % 0.00 in 0 W/m2
05:19 40.8 °F 37.3 °F 30.60 in Calm     87 % 0.00 in 0 W/m2
05:24 41.0 °F 37.4 °F 30.60 in Calm     87 % 0.00 in 0 W/m2
05:29 41.0 °F 37.1 °F 30.60 in SSE 1.0 mph 5.0 mph 86 % 0.00 in 0 W/m2
05:34 41.0 °F 37.1 °F 30.60 in SSE 1.0 mph 5.0 mph 86 % 0.00 in 0 W/m2
05:39 41.0 °F 37.1 °F 30.60 in SSE 1.0 mph 5.0 mph 86 % 0.00 in 0 W/m2
05:44 41.0 °F 37.1 °F 30.60 in Calm   5.0 mph 86 % 0.00 in 0 W/m2
05:49 41.0 °F 37.1 °F 30.60 in Calm   2.0 mph 86 % 0.00 in 0 W/m2
05:50 41.0 °F 37.1 °F 30.60 in Calm   3.0 mph 86 % 0.00 in 0 W/m2
05:55 41.0 °F 37.1 °F 30.60 in South 1.0 mph 4.0 mph 86 % 0.00 in 5 W/m2
06:00 41.0 °F 37.1 °F 30.60 in SSW 1.0 mph 6.0 mph 86 % 0.00 in 7 W/m2
06:05 41.0 °F 37.1 °F 30.59 in SSW 2.0 mph 6.0 mph 86 % 0.00 in 9 W/m2
06:10 40.8 °F 37.0 °F 30.60 in SSW 1.0 mph 6.0 mph 86 % 0.00 in 12 W/m2
06:15 40.8 °F 37.0 °F 30.60 in Calm   6.0 mph 86 % 0.00 in 16 W/m2
06:16 40.8 °F 37.0 °F 30.60 in Calm   1.0 mph 86 % 0.00 in 16 W/m2
06:21 40.8 °F 37.0 °F 30.60 in Calm   4.0 mph 86 % 0.00 in 23 W/m2
06:26 40.8 °F 36.7 °F 30.60 in Calm   4.0 mph 85 % 0.00 in 30 W/m2
06:31 40.8 °F 36.7 °F 30.60 in SSW 1.0 mph 5.0 mph 85 % 0.00 in 35 W/m2
06:36 41.0 °F 36.8 °F 30.60 in SSW 1.0 mph 5.0 mph 85 % 0.00 in 42 W/m2
06:41 41.2 °F 36.7 °F 30.60 in South 1.0 mph 5.0 mph 84 % 0.00 in 47 W/m2
06:46 41.2 °F 36.7 °F 30.60 in South 1.0 mph 5.0 mph 84 % 0.00 in 53 W/m2
06:51 41.4 °F 36.9 °F 30.61 in South 1.0 mph 5.0 mph 84 % 0.00 in 58 W/m2
06:56 41.5 °F 36.8 °F 30.61 in South 1.0 mph 5.0 mph 83 % 0.00 in 72 W/m2
07:01 41.5 °F 36.8 °F 30.60 in South 2.0 mph 7.0 mph 83 % 0.00 in 86 W/m2
07:06 41.7 °F 36.9 °F 30.61 in South 3.0 mph 8.0 mph 83 % 0.00 in 98 W/m2
07:11 42.1 °F 37.0 °F 30.61 in South 3.0 mph 8.0 mph 82 % 0.00 in 156 W/m2
07:16 42.4 °F 37.3 °F 30.61 in South 3.0 mph 7.0 mph 82 % 0.00 in 153 W/m2
07:21 42.8 °F 37.4 °F 30.61 in SSW 3.0 mph 8.0 mph 81 % 0.00 in 144 W/m2
07:26 43.0 °F 37.2 °F 30.61 in SSW 4.0 mph 8.0 mph 80 % 0.00 in 156 W/m2
07:31 43.2 °F 37.4 °F 30.60 in South 4.0 mph 8.0 mph 80 % 0.00 in 121 W/m2
07:36 43.3 °F 37.6 °F 30.60 in South 5.0 mph 9.0 mph 80 % 0.00 in 148 W/m2
07:41 43.5 °F 37.8 °F 30.60 in SSW 6.0 mph 9.0 mph 80 % 0.00 in 244 W/m2
07:46 43.9 °F 37.8 °F 30.61 in SSW 6.0 mph 10.0 mph 79 % 0.00 in 185 W/m2
07:51 43.9 °F 37.8 °F 30.61 in SSW 6.0 mph 10.0 mph 79 % 0.00 in 153 W/m2
07:56 44.1 °F 37.6 °F 30.61 in SSW 6.0 mph 9.0 mph 78 % 0.00 in 162 W/m2
08:01 44.2 °F 37.8 °F 30.61 in SSW 6.0 mph 9.0 mph 78 % 0.00 in 162 W/m2
08:06 44.2 °F 37.8 °F 30.61 in SW 5.0 mph 9.0 mph 78 % 0.00 in 162 W/m2
08:11 44.4 °F 37.7 °F 30.60 in SSW 6.0 mph 11.0 mph 77 % 0.00 in 155 W/m2
08:17 44.6 °F 37.8 °F 30.61 in SSW 6.0 mph 11.0 mph 77 % 0.00 in 163 W/m2
08:22 44.8 °F 37.7 °F 30.61 in SW 6.0 mph 11.0 mph 76 % 0.00 in 174 W/m2
08:27 44.8 °F 38.0 °F 30.61 in SSW 6.0 mph 11.0 mph 77 % 0.00 in 174 W/m2
08:32 45.0 °F 37.8 °F 30.61 in SSW 5.0 mph 10.0 mph 76 % 0.00 in 176 W/m2
08:37 45.1 °F 38.0 °F 30.61 in SSW 6.0 mph 11.0 mph 76 % 0.00 in 183 W/m2
08:42 45.1 °F 37.7 °F 30.61 in SSW 5.0 mph 11.0 mph 75 % 0.00 in 185 W/m2
08:47 45.3 °F 37.9 °F 30.61 in SSW 5.0 mph 10.0 mph 75 % 0.00 in 204 W/m2
08:52 45.3 °F 37.9 °F 30.61 in SSW 6.0 mph 11.0 mph 75 % 0.00 in 192 W/m2
08:57 45.5 °F 37.7 °F 30.61 in SSW 7.0 mph 11.0 mph 74 % 0.00 in 181 W/m2
09:02 45.7 °F 37.9 °F 30.61 in SW 7.0 mph 11.0 mph 74 % 0.00 in 204 W/m2
09:07 45.7 °F 38.2 °F 30.61 in SW 6.0 mph 10.0 mph 75 % 0.00 in 202 W/m2
09:12 45.9 °F 38.4 °F 30.61 in SW 6.0 mph 9.0 mph 75 % 0.00 in 246 W/m2
09:17 46.0 °F 38.2 °F 30.62 in SW 6.0 mph 10.0 mph 74 % 0.00 in 283 W/m2
09:22 46.2 °F 38.0 °F 30.62 in SSW 6.0 mph 10.0 mph 73 % 0.00 in 213 W/m2
09:27 46.4 °F 38.2 °F 30.62 in SSW 5.0 mph 10.0 mph 73 % 0.00 in 230 W/m2
09:32 46.6 °F 38.4 °F 30.61 in SSW 5.0 mph 10.0 mph 73 % 0.00 in 234 W/m2
09:37 46.8 °F 38.2 °F 30.62 in SSW 6.0 mph 12.0 mph 72 % 0.00 in 299 W/m2
09:42 46.9 °F 38.0 °F 30.62 in SW 7.0 mph 12.0 mph 71 % 0.00 in 322 W/m2
09:47 47.1 °F 37.8 °F 30.62 in SW 8.0 mph 13.0 mph 70 % 0.00 in 301 W/m2
09:52 47.1 °F 37.8 °F 30.62 in SW 8.0 mph 13.0 mph 70 % 0.00 in 278 W/m2
09:57 47.1 °F 37.8 °F 30.62 in SW 7.0 mph 11.0 mph 70 % 0.00 in 278 W/m2
10:02 47.5 °F 38.2 °F 30.62 in SW 7.0 mph 11.0 mph 70 % 0.00 in 285 W/m2
10:07 47.7 °F 38.0 °F 30.62 in SW 7.0 mph 11.0 mph 69 % 0.00 in 281 W/m2
10:12 47.7 °F 38.4 °F 30.62 in SW 6.0 mph 11.0 mph 70 % 0.00 in 301 W/m2
10:17 47.8 °F 38.2 °F 30.62 in SW 6.0 mph 10.0 mph 69 % 0.00 in 353 W/m2
10:23 48.0 °F 38.3 °F 30.62 in SSW 7.0 mph 10.0 mph 69 % 0.00 in 346 W/m2
10:28 48.0 °F 38.0 °F 30.62 in SSW 6.0 mph 10.0 mph 68 % 0.00 in 327 W/m2
10:33 48.4 °F 38.3 °F 30.63 in SSW 6.0 mph 10.0 mph 68 % 0.00 in 302 W/m2
10:38 48.6 °F 38.1 °F 30.62 in SSW 6.0 mph 10.0 mph 67 % 0.00 in 290 W/m2
10:43 48.7 °F 38.3 °F 30.62 in SSW 5.0 mph 9.0 mph 67 % 0.00 in 281 W/m2
10:48 48.9 °F 37.7 °F 30.62 in SSW 5.0 mph 9.0 mph 65 % 0.00 in 281 W/m2
10:53 48.9 °F 38.1 °F 30.62 in SSW 5.0 mph 9.0 mph 66 % 0.00 in 292 W/m2
10:58 49.3 °F 38.4 °F 30.62 in SSW 4.0 mph 7.0 mph 66 % 0.00 in 313 W/m2
11:03 49.6 °F 38.3 °F 30.62 in South 3.0 mph 7.0 mph 65 % 0.00 in 345 W/m2
11:08 49.8 °F 38.9 °F 30.62 in South 3.0 mph 7.0 mph 66 % 0.00 in 387 W/m2
11:13 50.2 °F 38.9 °F 30.62 in South 4.0 mph 8.0 mph 65 % 0.00 in 427 W/m2
11:18 50.4 °F 38.6 °F 30.61 in South 5.0 mph 8.0 mph 64 % 0.00 in 438 W/m2
11:23 50.7 °F 39.0 °F 30.61 in SSW 5.0 mph 10.0 mph 64 % 0.00 in 506 W/m2
11:28 51.1 °F 38.9 °F 30.61 in SSW 5.0 mph 10.0 mph 63 % 0.00 in 552 W/m2
11:33 51.3 °F 38.7 °F 30.61 in SSW 5.0 mph 11.0 mph 62 % 0.00 in 527 W/m2
11:38 51.3 °F 38.7 °F 30.61 in South 6.0 mph 11.0 mph 62 % 0.00 in 508 W/m2
11:43 51.6 °F 38.6 °F 30.61 in SSE 6.0 mph 11.0 mph 61 % 0.00 in 570 W/m2
11:48 52.0 °F 38.5 °F 30.61 in South 7.0 mph 14.0 mph 60 % 0.00 in 545 W/m2
11:53 52.0 °F 38.5 °F 30.61 in SSW 7.0 mph 14.0 mph 60 % 0.00 in 557 W/m2
11:58 52.3 °F 38.4 °F 30.61 in SSW 6.0 mph 12.0 mph 59 % 0.00 in 564 W/m2
12:03 52.7 °F 38.8 °F 30.60 in SSW 5.0 mph 10.0 mph 59 % 0.00 in 508 W/m2
12:09 53.1 °F 38.2 °F 30.60 in SW 5.0 mph 9.0 mph 57 % 0.00 in 455 W/m2
12:14 53.2 °F 38.8 °F 30.60 in SSW 5.0 mph 9.0 mph 58 % 0.00 in 413 W/m2
12:19 53.2 °F 38.4 °F 30.60 in South 4.0 mph 9.0 mph 57 % 0.00 in 371 W/m2
12:24 53.1 °F 37.8 °F 30.60 in SSW 5.0 mph 11.0 mph 56 % 0.00 in 396 W/m2
12:29 52.7 °F 37.9 °F 30.60 in SSW 6.0 mph 11.0 mph 57 % 0.00 in 403 W/m2
12:34 52.7 °F 37.4 °F 30.60 in SSW 6.0 mph 12.0 mph 56 % 0.00 in 388 W/m2
12:39 52.9 °F 38.5 °F 30.59 in SSW 5.0 mph 12.0 mph 58 % 0.00 in 383 W/m2
12:44 53.1 °F 37.8 °F 30.59 in SW 5.0 mph 10.0 mph 56 % 0.00 in 434 W/m2
12:49 53.2 °F 37.9 °F 30.59 in SW 4.0 mph 10.0 mph 56 % 0.00 in 373 W/m2
12:54 53.4 °F 38.1 °F 30.59 in SSW 4.0 mph 9.0 mph 56 % 0.00 in 381 W/m2
12:59 53.6 °F 38.3 °F 30.59 in SSW 5.0 mph 9.0 mph 56 % 0.00 in 272 W/m2
13:04 53.4 °F 38.1 °F 30.59 in SW 5.0 mph 11.0 mph 56 % 0.00 in 318 W/m2
13:09 53.4 °F 38.1 °F 30.59 in SSW 5.0 mph 11.0 mph 56 % 0.00 in 318 W/m2
13:14 53.6 °F 38.7 °F 30.59 in South 5.0 mph 12.0 mph 57 % 0.00 in 332 W/m2
13:19 53.6 °F 38.3 °F 30.59 in SSW 6.0 mph 13.0 mph 56 % 0.00 in 299 W/m2
13:24 53.6 °F 38.3 °F 30.59 in SSW 6.0 mph 13.0 mph 56 % 0.00 in 292 W/m2
13:29 53.6 °F 38.7 °F 30.59 in SSW 6.0 mph 9.0 mph 57 % 0.00 in 281 W/m2
13:34 53.8 °F 38.4 °F 30.59 in SSW 6.0 mph 11.0 mph 56 % 0.00 in 265 W/m2
13:39 53.8 °F 38.4 °F 30.59 in SSW 6.0 mph 11.0 mph 56 % 0.00 in 257 W/m2
13:44 53.8 °F 38.4 °F 30.59 in SSW 5.0 mph 11.0 mph 56 % 0.00 in 262 W/m2
13:49 54.0 °F 38.1 °F 30.59 in SW 5.0 mph 10.0 mph 55 % 0.00 in 264 W/m2
13:54 53.8 °F 38.4 °F 30.59 in SW 7.0 mph 10.0 mph 56 % 0.00 in 251 W/m2
13:55 53.8 °F 38.9 °F 30.58 in SW 7.0 mph 10.0 mph 57 % 0.00 in 251 W/m2
14:00 53.8 °F 38.9 °F 30.58 in SW 7.0 mph 10.0 mph 57 % 0.00 in 267 W/m2
14:05 53.6 °F 38.3 °F 30.58 in SW 7.0 mph 12.0 mph 56 % 0.00 in 287 W/m2
14:10 53.8 °F 38.9 °F 30.58 in SW 7.0 mph 12.0 mph 57 % 0.00 in 257 W/m2
14:15 53.6 °F 38.3 °F 30.58 in SW 7.0 mph 11.0 mph 56 % 0.00 in 264 W/m2
14:20 53.8 °F 38.4 °F 30.58 in SSW 7.0 mph 11.0 mph 56 % 0.00 in 271 W/m2
14:25 54.0 °F 38.1 °F 30.58 in SSW 6.0 mph 10.0 mph 55 % 0.00 in 251 W/m2
14:30 54.0 °F 38.1 °F 30.58 in SW 6.0 mph 9.0 mph 55 % 0.00 in 236 W/m2
14:35 54.0 °F 38.1 °F 30.58 in SW 3.0 mph 7.0 mph 55 % 0.00 in 279 W/m2
14:40 54.0 °F 38.6 °F 30.58 in SW 2.0 mph 6.0 mph 56 % 0.00 in 250 W/m2
14:45 54.1 °F 37.4 °F 30.58 in WSW 3.0 mph 7.0 mph 53 % 0.00 in 236 W/m2
14:50 54.5 °F 38.2 °F 30.58 in West 3.0 mph 7.0 mph 54 % 0.00 in 246 W/m2
14:55 54.7 °F 38.4 °F 30.58 in West 4.0 mph 7.0 mph 54 % 0.00 in 267 W/m2
15:00 54.9 °F 37.6 °F 30.58 in West 4.0 mph 9.0 mph 52 % 0.00 in 250 W/m2
15:05 55.0 °F 37.2 °F 30.57 in West 5.0 mph 9.0 mph 51 % 0.00 in 232 W/m2
15:10 55.0 °F 37.2 °F 30.57 in WNW 5.0 mph 8.0 mph 51 % 0.00 in 236 W/m2
15:15 55.2 °F 36.9 °F 30.57 in WNW 5.0 mph 9.0 mph 50 % 0.00 in 229 W/m2
15:20 55.2 °F 36.4 °F 30.57 in West 6.0 mph 9.0 mph 49 % 0.00 in 216 W/m2
15:25 55.0 °F 36.2 °F 30.57 in West 6.0 mph 13.0 mph 49 % 0.00 in 213 W/m2
15:30 55.0 °F 36.7 °F 30.57 in WNW 7.0 mph 13.0 mph 50 % 0.00 in 202 W/m2
15:35 55.0 °F 36.7 °F 30.57 in WNW 6.0 mph 10.0 mph 50 % 0.00 in 213 W/m2
15:40 55.0 °F 37.2 °F 30.57 in WNW 6.0 mph 11.0 mph 51 % 0.00 in 232 W/m2
15:45 55.0 °F 36.7 °F 30.57 in West 6.0 mph 11.0 mph 50 % 0.00 in 216 W/m2
15:50 54.9 °F 36.6 °F 30.57 in West 7.0 mph 11.0 mph 50 % 0.00 in 169 W/m2
15:55 54.7 °F 36.9 °F 30.57 in West 6.0 mph 10.0 mph 51 % 0.00 in 178 W/m2
16:00 54.7 °F 36.9 °F 30.56 in West 5.0 mph 9.0 mph 51 % 0.00 in 199 W/m2
16:05 54.9 °F 37.6 °F 30.56 in West 6.0 mph 10.0 mph 52 % 0.00 in 216 W/m2
16:10 54.9 °F 37.6 °F 30.56 in West 6.0 mph 10.0 mph 52 % 0.00 in 232 W/m2
16:15 54.9 °F 37.6 °F 30.56 in West 6.0 mph 11.0 mph 52 % 0.00 in 234 W/m2
16:20 54.9 °F 37.1 °F 30.56 in West 5.0 mph 11.0 mph 51 % 0.00 in 204 W/m2
16:25 54.9 °F 36.6 °F 30.56 in West 5.0 mph 11.0 mph 50 % 0.00 in 167 W/m2
16:30 54.9 °F 37.1 °F 30.56 in WNW 6.0 mph 11.0 mph 51 % 0.00 in 123 W/m2
16:35 54.7 °F 36.4 °F 30.56 in WNW 7.0 mph 13.0 mph 50 % 0.00 in 113 W/m2
16:40 54.7 °F 36.4 °F 30.56 in WNW 7.0 mph 13.0 mph 50 % 0.00 in 107 W/m2
16:45 54.3 °F 36.6 °F 30.56 in WNW 7.0 mph 13.0 mph 51 % 0.00 in 120 W/m2
16:50 54.1 °F 36.4 °F 30.56 in WNW 6.0 mph 12.0 mph 51 % 0.00 in 135 W/m2
16:55 54.1 °F 36.4 °F 30.56 in WNW 6.0 mph 10.0 mph 51 % 0.00 in 165 W/m2
17:00 54.0 °F 36.7 °F 30.56 in WNW 5.0 mph 9.0 mph 52 % 0.00 in 151 W/m2
17:05 54.0 °F 36.2 °F 30.56 in West 5.0 mph 9.0 mph 51 % 0.00 in 127 W/m2
17:10 54.0 °F 36.7 °F 30.56 in West 5.0 mph 10.0 mph 52 % 0.00 in 153 W/m2
17:15 54.1 °F 37.4 °F 30.56 in WNW 4.0 mph 10.0 mph 53 % 0.00 in 209 W/m2
17:20 54.1 °F 36.4 °F 30.56 in WNW 3.0 mph 7.0 mph 51 % 0.00 in 223 W/m2
17:25 54.3 °F 36.1 °F 30.56 in WNW 3.0 mph 7.0 mph 50 % 0.00 in 209 W/m2
17:30 54.3 °F 36.1 °F 30.56 in WNW 3.0 mph 7.0 mph 50 % 0.00 in 176 W/m2
17:35 54.7 °F 36.4 °F 30.56 in WNW 1.0 mph 5.0 mph 50 % 0.00 in 149 W/m2
17:41 54.5 °F 36.2 °F 30.56 in WSW 3.0 mph 6.0 mph 50 % 0.00 in 146 W/m2
17:46 54.3 °F 36.6 °F 30.55 in SW 4.0 mph 7.0 mph 51 % 0.00 in 149 W/m2
17:51 54.1 °F 36.4 °F 30.55 in SW 4.0 mph 8.0 mph 51 % 0.00 in 134 W/m2
17:56 54.1 °F 37.4 °F 30.55 in SW 3.0 mph 8.0 mph 53 % 0.00 in 127 W/m2
18:01 54.3 °F 37.5 °F 30.55 in WSW 4.0 mph 11.0 mph 53 % 0.00 in 144 W/m2
18:06 54.3 °F 37.1 °F 30.55 in West 7.0 mph 11.0 mph 52 % 0.00 in 149 W/m2
18:11 54.3 °F 37.1 °F 30.55 in West 5.0 mph 10.0 mph 52 % 0.00 in 137 W/m2
18:16 54.5 °F 37.2 °F 30.55 in West 4.0 mph 6.0 mph 52 % 0.00 in 128 W/m2
18:21 54.5 °F 38.2 °F 30.55 in WNW 3.0 mph 7.0 mph 54 % 0.00 in 120 W/m2
18:26 54.5 °F 38.2 °F 30.55 in WNW 2.0 mph 7.0 mph 54 % 0.00 in 105 W/m2
18:31 54.5 °F 37.7 °F 30.55 in West 3.0 mph 7.0 mph 53 % 0.00 in 100 W/m2
18:36 54.3 °F 38.0 °F 30.55 in WSW 5.0 mph 9.0 mph 54 % 0.00 in 86 W/m2
18:41 54.3 °F 38.5 °F 30.55 in WSW 5.0 mph 9.0 mph 55 % 0.00 in 74 W/m2
18:46 54.3 °F 38.5 °F 30.55 in West 5.0 mph 8.0 mph 55 % 0.00 in 67 W/m2
18:51 54.3 °F 38.9 °F 30.55 in WNW 4.0 mph 8.0 mph 56 % 0.00 in 54 W/m2
18:56 54.3 °F 39.4 °F 30.55 in WNW 4.0 mph 6.0 mph 57 % 0.00 in 70 W/m2
19:01 54.1 °F 38.8 °F 30.55 in West 4.0 mph 9.0 mph 56 % 0.00 in 67 W/m2
19:06 54.1 °F 38.3 °F 30.55 in West 6.0 mph 11.0 mph 55 % 0.00 in 47 W/m2
19:11 54.0 °F 38.6 °F 30.55 in West 7.0 mph 11.0 mph 56 % 0.00 in 40 W/m2
19:16 53.8 °F 38.4 °F 30.55 in West 6.0 mph 11.0 mph 56 % 0.00 in 30 W/m2
19:21 53.8 °F 38.9 °F 30.55 in West 5.0 mph 8.0 mph 57 % 0.00 in 25 W/m2
19:26 53.6 °F 39.2 °F 30.55 in WNW 4.0 mph 8.0 mph 58 % 0.00 in 26 W/m2
19:31 53.4 °F 38.6 °F 30.55 in West 4.0 mph 8.0 mph 57 % 0.00 in 21 W/m2
19:36 53.4 °F 39.0 °F 30.55 in West 3.0 mph 7.0 mph 58 % 0.00 in 19 W/m2
19:41 53.2 °F 38.8 °F 30.55 in West 2.0 mph 5.0 mph 58 % 0.00 in 16 W/m2
19:46 53.2 °F 39.3 °F 30.55 in West 2.0 mph 5.0 mph 59 % 0.00 in 14 W/m2
19:51 53.1 °F 39.1 °F 30.55 in West 2.0 mph 7.0 mph 59 % 0.00 in 12 W/m2
19:56 53.1 °F 39.1 °F 30.55 in West 3.0 mph 7.0 mph 59 % 0.00 in 11 W/m2
20:01 52.9 °F 39.4 °F 30.55 in West 2.0 mph 7.0 mph 60 % 0.00 in 7 W/m2
20:06 52.9 °F 39.4 °F 30.55 in West 2.0 mph 6.0 mph 60 % 0.00 in 0 W/m2
20:11 52.7 °F 39.2 °F 30.56 in West 2.0 mph 6.0 mph 60 % 0.00 in 0 W/m2
20:16 52.5 °F 39.5 °F 30.56 in West 1.0 mph 6.0 mph 61 % 0.00 in 0 W/m2
20:21 52.5 °F 39.9 °F 30.56 in Calm   2.0 mph 62 % 0.00 in 0 W/m2
20:26 52.3 °F 39.7 °F 30.56 in Calm   1.0 mph 62 % 0.00 in 0 W/m2
20:31 52.3 °F 39.7 °F 30.56 in Calm   2.0 mph 62 % 0.00 in 0 W/m2
20:36 52.2 °F 39.5 °F 30.56 in Calm   2.0 mph 62 % 0.00 in 0 W/m2
20:41 52.0 °F 39.8 °F 30.56 in Calm   2.0 mph 63 % 0.00 in 0 W/m2
20:47 52.0 °F 39.8 °F 30.56 in Calm     63 % 0.00 in 0 W/m2
20:52 51.8 °F 40.0 °F 30.56 in Calm     64 % 0.00 in 0 W/m2
20:57 51.6 °F 40.2 °F 30.56 in Calm     65 % 0.00 in 0 W/m2
21:02 51.6 °F 40.2 °F 30.56 in Calm     65 % 0.00 in 0 W/m2
21:07 51.4 °F 40.1 °F 30.56 in Calm     65 % 0.00 in 0 W/m2
21:12 51.3 °F 40.3 °F 30.56 in Calm     66 % 0.00 in 0 W/m2
21:17 51.3 °F 40.3 °F 30.56 in Calm     66 % 0.00 in 0 W/m2
21:22 51.3 °F 40.7 °F 30.56 in Calm     67 % 0.00 in 0 W/m2
21:27 51.1 °F 40.1 °F 30.56 in Calm     66 % 0.00 in 0 W/m2
21:32 51.1 °F 40.1 °F 30.56 in Calm     66 % 0.00 in 0 W/m2
21:37 50.9 °F 40.3 °F 30.56 in Calm     67 % 0.00 in 0 W/m2
21:42 50.9 °F 40.3 °F 30.56 in Calm   1.0 mph 67 % 0.00 in 0 W/m2
21:47 50.7 °F 40.2 °F 30.56 in Calm   3.0 mph 67 % 0.00 in 0 W/m2
21:52 50.7 °F 40.5 °F 30.57 in Calm   3.0 mph 68 % 0.00 in 0 W/m2
21:57 50.7 °F 40.5 °F 30.57 in Calm   1.0 mph 68 % 0.00 in 0 W/m2
22:02 50.7 °F 40.5 °F 30.57 in Calm   1.0 mph 68 % 0.00 in 0 W/m2
22:07 50.5 °F 40.4 °F 30.56 in Calm     68 % 0.00 in 0 W/m2
22:12 50.5 °F 40.4 °F 30.57 in Calm     68 % 0.00 in 0 W/m2
22:17 50.5 °F 40.7 °F 30.57 in Calm     69 % 0.00 in 0 W/m2
22:22 50.4 °F 40.6 °F 30.57 in Calm     69 % 0.00 in 0 W/m2
22:27 50.4 °F 40.6 °F 30.57 in Calm     69 % 0.00 in 0 W/m2
22:32 50.4 °F 40.6 °F 30.57 in Calm     69 % 0.00 in 0 W/m2
22:37 50.2 °F 40.8 °F 30.56 in Calm     70 % 0.00 in 0 W/m2
22:42 50.2 °F 41.1 °F 30.56 in Calm     71 % 0.00 in 0 W/m2
22:48 50.0 °F 41.0 °F 30.56 in Calm     71 % 0.00 in 0 W/m2
22:53 49.8 °F 41.2 °F 30.57 in Calm     72 % 0.00 in 0 W/m2
22:58 49.6 °F 41.0 °F 30.57 in Calm     72 % 0.00 in 0 W/m2
23:03 49.5 °F 40.8 °F 30.57 in Calm     72 % 0.00 in 0 W/m2
23:08 49.3 °F 41.0 °F 30.57 in Calm     73 % 0.00 in 0 W/m2
23:13 49.3 °F 41.0 °F 30.57 in Calm     73 % 0.00 in 0 W/m2
23:18 49.3 °F 41.0 °F 30.57 in Calm     73 % 0.00 in 0 W/m2
23:23 49.1 °F 41.2 °F 30.57 in Calm     74 % 0.00 in 0 W/m2
23:28 49.1 °F 41.2 °F 30.56 in Calm     74 % 0.00 in 0 W/m2
23:33 49.1 °F 41.2 °F 30.56 in Calm     74 % 0.00 in 0 W/m2
23:38 49.1 °F 41.2 °F 30.56 in Calm     74 % 0.00 in 0 W/m2
23:43 48.9 °F 41.0 °F 30.56 in Calm     74 % 0.00 in 0 W/m2
23:48 48.9 °F 41.0 °F 30.56 in Calm     74 % 0.00 in 0 W/m2
23:53 48.7 °F 41.2 °F 30.56 in Calm   1.0 mph 75 % 0.00 in 0 W/m2
23:58 48.7 °F 41.5 °F 30.56 in Calm   1.0 mph 76 % 0.00 in 0 W/m2
Delerius-Weather
Compliments of Weather Underground - 2.25 mb

Data updates at regular intervals.